createdAt,value
2019-02-26T00:00:47.012Z,85.64
2019-02-26T00:01:48.540Z,85.91
2019-02-26T00:02:48.594Z,85.43
2019-02-26T00:03:44.819Z,85.43
2019-02-26T00:04:43.796Z,86.02
2019-02-26T00:05:47.895Z,85.43
2019-02-26T00:06:47.186Z,85.43
2019-02-26T00:07:44.426Z,85.12
2019-02-26T00:08:47.243Z,84.70
2019-02-26T00:09:44.734Z,85.58
2019-02-26T00:10:43.729Z,85.68
2019-02-26T00:11:43.744Z,86.41
2019-02-26T00:12:43.720Z,86.41
2019-02-26T00:13:43.692Z,86.62
2019-02-26T00:14:45.361Z,87.15
2019-02-26T00:15:45.762Z,87.15
2019-02-26T00:16:44.593Z,86.83
2019-02-26T00:17:45.885Z,87.42
2019-02-26T00:18:43.649Z,87.00
2019-02-26T00:19:43.626Z,86.79
2019-02-26T00:20:43.631Z,86.58
2019-02-26T00:21:45.774Z,86.58
2019-02-26T00:22:43.594Z,86.79
2019-02-26T00:23:44.455Z,86.69
2019-02-26T00:24:44.468Z,85.96
2019-02-26T00:25:43.592Z,85.85
2019-02-26T00:26:45.148Z,86.33
2019-02-26T00:27:43.537Z,86.02
2019-02-26T00:28:43.755Z,86.13
2019-02-26T00:29:44.318Z,85.29
2019-02-26T00:30:43.518Z,85.39
2019-02-26T00:31:46.053Z,85.91
2019-02-26T00:32:43.482Z,85.18
2019-02-26T00:33:43.471Z,85.25
2019-02-26T00:34:43.460Z,85.39
2019-02-26T00:35:44.277Z,84.94
2019-02-26T00:36:43.468Z,84.52
2019-02-26T00:37:44.032Z,84.56
2019-02-26T00:38:44.443Z,84.77
2019-02-26T00:39:45.175Z,84.77
2019-02-26T00:40:43.395Z,84.87
2019-02-26T00:41:43.382Z,85.04
2019-02-26T00:42:43.377Z,84.77
2019-02-26T00:43:43.363Z,84.34
2019-02-26T00:44:43.363Z,85.08
2019-02-26T00:45:43.338Z,85.14
2019-02-26T00:46:43.329Z,84.73
2019-02-26T00:47:44.119Z,85.08
2019-02-26T00:48:43.329Z,84.41
2019-02-26T00:49:44.231Z,84.66
2019-02-26T00:50:43.283Z,84.77
2019-02-26T00:51:46.029Z,86.29
2019-02-26T00:52:43.264Z,85.08
2019-02-26T00:53:43.286Z,86.02
2019-02-26T00:54:43.246Z,86.02
2019-02-26T00:55:43.229Z,85.39
2019-02-26T00:56:43.216Z,86.13
2019-02-26T00:57:43.277Z,85.81
2019-02-26T00:58:44.149Z,85.98
2019-02-26T00:59:44.172Z,86.02
2019-02-26T01:00:43.180Z,85.77
2019-02-26T01:01:46.006Z,85.77
2019-02-26T01:02:43.150Z,86.19
2019-02-26T01:03:45.279Z,85.73
2019-02-26T01:04:44.721Z,85.73
2019-02-26T01:05:45.297Z,85.67
2019-02-26T01:06:43.112Z,85.21
2019-02-26T01:07:44.903Z,85.83
2019-02-26T01:08:44.793Z,85.42
2019-02-26T01:09:43.103Z,85.83
2019-02-26T01:10:43.691Z,85.31
2019-02-26T01:11:45.079Z,86.32
2019-02-26T01:12:43.052Z,84.48
2019-02-26T01:13:43.028Z,85.63
2019-02-26T01:14:44.057Z,85.49
2019-02-26T01:15:43.022Z,85.42
2019-02-26T01:16:43.781Z,85.31
2019-02-26T01:17:42.985Z,85.52
2019-02-26T01:18:44.387Z,85.06
2019-02-26T01:19:43.140Z,86.05
2019-02-26T01:20:42.986Z,85.31
2019-02-26T01:21:42.937Z,85.00
2019-02-26T01:22:45.338Z,85.52
2019-02-26T01:23:42.917Z,84.89
2019-02-26T01:24:42.919Z,85.73
2019-02-26T01:25:42.896Z,85.21
2019-02-26T01:26:43.623Z,85.83
2019-02-26T01:27:43.716Z,85.31
2019-02-26T01:28:46.131Z,85.35
2019-02-26T01:29:44.604Z,85.67
2019-02-26T01:30:42.847Z,85.73
2019-02-26T01:31:42.859Z,85.83
2019-02-26T01:32:42.817Z,85.42
2019-02-26T01:33:42.804Z,85.63
2019-02-26T01:34:44.894Z,85.21
2019-02-26T01:35:42.787Z,85.56
2019-02-26T01:36:44.819Z,85.35
2019-02-26T01:37:42.773Z,85.56
2019-02-26T01:38:45.880Z,85.46
2019-02-26T01:39:44.679Z,85.60
2019-02-26T01:40:45.647Z,85.71
2019-02-26T01:41:45.439Z,86.02
2019-02-26T01:42:47.245Z,86.02
2019-02-26T01:43:43.708Z,86.54
2019-02-26T01:44:44.372Z,86.79
2019-02-26T01:45:44.005Z,87.59
2019-02-26T01:46:42.676Z,86.69
2019-02-26T01:47:45.265Z,88.57
2019-02-26T01:48:42.646Z,89.05
2019-02-26T01:49:44.250Z,89.09
2019-02-26T01:50:42.620Z,88.26
2019-02-26T01:51:43.284Z,88.74
2019-02-26T01:52:42.597Z,88.64
2019-02-26T01:53:44.428Z,88.53
2019-02-26T01:54:42.592Z,88.21
2019-02-26T01:55:44.173Z,87.45
2019-02-26T01:56:42.551Z,87.02
2019-02-26T01:57:43.693Z,86.92
2019-02-26T01:58:42.529Z,87.13
2019-02-26T01:59:42.532Z,86.29
2019-02-26T02:00:42.518Z,86.61
2019-02-26T02:01:44.681Z,86.71
2019-02-26T02:02:42.499Z,86.51
2019-02-26T02:03:44.707Z,86.29
2019-02-26T02:04:43.483Z,86.08
2019-02-26T02:05:43.224Z,85.77
2019-02-26T02:06:42.449Z,85.67
2019-02-26T02:07:44.367Z,86.92
2019-02-26T02:08:45.404Z,85.98
2019-02-26T02:09:42.409Z,85.77
2019-02-26T02:10:42.448Z,85.88
2019-02-26T02:11:42.386Z,86.08
2019-02-26T02:12:42.385Z,86.19
2019-02-26T02:13:43.848Z,86.40
2019-02-26T02:14:42.354Z,86.54
2019-02-26T02:15:44.309Z,86.40
2019-02-26T02:16:42.344Z,86.75
2019-02-26T02:17:42.317Z,86.92
2019-02-26T02:18:46.052Z,86.65
2019-02-26T02:19:43.301Z,86.96
2019-02-26T02:20:42.286Z,86.92
2019-02-26T02:21:42.298Z,86.75
2019-02-26T02:22:44.260Z,86.71
2019-02-26T02:23:44.119Z,85.98
2019-02-26T02:24:44.503Z,86.19
2019-02-26T02:25:43.417Z,85.98
2019-02-26T02:26:45.300Z,86.19
2019-02-26T02:27:47.532Z,86.75
2019-02-26T02:28:43.195Z,86.85
2019-02-26T02:29:45.719Z,86.29
2019-02-26T02:30:42.188Z,85.91
2019-02-26T02:31:42.163Z,85.77
2019-02-26T02:32:42.165Z,86.13
2019-02-26T02:33:42.155Z,85.81
2019-02-26T02:34:43.103Z,85.60
2019-02-26T02:35:42.129Z,86.47
2019-02-26T02:36:42.109Z,87.00
2019-02-26T02:37:42.116Z,87.10
2019-02-26T02:38:42.104Z,87.21
2019-02-26T02:39:42.074Z,87.52
2019-02-26T02:40:43.312Z,88.36
2019-02-26T02:41:44.246Z,87.73
2019-02-26T02:42:43.199Z,87.31
2019-02-26T02:43:42.043Z,87.31
2019-02-26T02:44:44.475Z,87.42
2019-02-26T02:45:42.008Z,87.00
2019-02-26T02:46:44.348Z,87.10
2019-02-26T02:47:41.997Z,87.66
2019-02-26T02:48:41.986Z,87.52
2019-02-26T02:49:44.278Z,87.77
2019-02-26T02:50:41.953Z,88.29
2019-02-26T02:51:41.959Z,87.66
2019-02-26T02:52:41.939Z,88.29
2019-02-26T02:53:41.931Z,87.35
2019-02-26T02:54:43.969Z,87.08
2019-02-26T02:55:44.254Z,87.60
2019-02-26T02:56:44.262Z,87.60
2019-02-26T02:57:41.876Z,87.92
2019-02-26T02:58:44.248Z,88.86
2019-02-26T02:59:42.379Z,88.54
2019-02-26T03:00:41.845Z,89.00
2019-02-26T03:01:43.078Z,89.11
2019-02-26T03:02:43.284Z,88.90
2019-02-26T03:03:41.811Z,89.00
2019-02-26T03:04:41.825Z,89.22
2019-02-26T03:05:43.929Z,88.90
2019-02-26T03:06:41.775Z,88.79
2019-02-26T03:07:42.406Z,88.79
2019-02-26T03:08:42.236Z,89.11
2019-02-26T03:09:43.293Z,89.00
2019-02-26T03:10:43.086Z,89.22
2019-02-26T03:11:44.026Z,89.32
2019-02-26T03:12:46.935Z,89.67
2019-02-26T03:13:45.339Z,89.67
2019-02-26T03:14:41.968Z,89.57
2019-02-26T03:15:41.681Z,90.61
2019-02-26T03:16:42.465Z,90.09
2019-02-26T03:17:41.662Z,90.93
2019-02-26T03:18:41.647Z,91.66
2019-02-26T03:19:43.640Z,91.66
2019-02-26T03:20:41.642Z,90.30
2019-02-26T03:21:42.146Z,90.61
2019-02-26T03:22:45.317Z,91.14
2019-02-26T03:23:43.511Z,90.20
2019-02-26T03:24:41.578Z,89.88
2019-02-26T03:25:44.311Z,90.51
2019-02-26T03:26:41.558Z,91.66
2019-02-26T03:27:42.650Z,90.41
2019-02-26T03:28:42.130Z,91.03
2019-02-26T03:29:41.532Z,91.41
2019-02-26T03:30:44.195Z,91.14
2019-02-26T03:31:47.204Z,91.72
2019-02-26T03:32:45.948Z,91.94
2019-02-26T03:33:42.479Z,91.83
2019-02-26T03:34:41.471Z,92.25
2019-02-26T03:35:41.467Z,92.25
2019-02-26T03:36:45.079Z,91.41
2019-02-26T03:37:41.449Z,91.20
2019-02-26T03:38:44.047Z,91.47
2019-02-26T03:39:42.416Z,90.95
2019-02-26T03:40:41.401Z,90.16
2019-02-26T03:41:43.251Z,90.36
2019-02-26T03:42:43.329Z,90.36
2019-02-26T03:43:41.822Z,90.58
2019-02-26T03:44:41.370Z,90.33
2019-02-26T03:45:41.348Z,90.47
2019-02-26T03:46:41.336Z,90.58
2019-02-26T03:47:41.336Z,91.16
2019-02-26T03:48:41.317Z,91.16
2019-02-26T03:49:42.275Z,91.37
2019-02-26T03:50:44.090Z,91.47
2019-02-26T03:51:41.284Z,90.33
2019-02-26T03:52:41.270Z,90.01
2019-02-26T03:53:41.859Z,90.11
2019-02-26T03:54:42.960Z,90.11
2019-02-26T03:55:43.348Z,90.01
2019-02-26T03:56:41.228Z,90.39
2019-02-26T03:57:46.829Z,90.43
2019-02-26T03:58:42.202Z,89.90
2019-02-26T03:59:41.200Z,90.11
2019-02-26T04:00:43.630Z,90.01
2019-02-26T04:01:41.170Z,90.01
2019-02-26T04:02:43.340Z,90.11
2019-02-26T04:03:42.518Z,90.43
2019-02-26T04:04:41.153Z,89.76
2019-02-26T04:05:41.152Z,89.23
2019-02-26T04:06:43.746Z,89.13
2019-02-26T04:07:41.103Z,88.88
2019-02-26T04:08:42.237Z,88.40
2019-02-26T04:09:42.276Z,88.26
2019-02-26T04:10:41.119Z,87.77
2019-02-26T04:11:46.992Z,87.46
2019-02-26T04:12:44.641Z,87.46
2019-02-26T04:13:43.149Z,87.46
2019-02-26T04:14:41.028Z,87.15
2019-02-26T04:15:41.016Z,87.46
2019-02-26T04:16:43.523Z,88.82
2019-02-26T04:17:42.280Z,88.61
2019-02-26T04:18:40.983Z,88.96
2019-02-26T04:19:43.644Z,89.07
2019-02-26T04:20:44.218Z,88.54
2019-02-26T04:21:40.948Z,89.48
2019-02-26T04:22:42.881Z,88.86
2019-02-26T04:23:44.000Z,89.70
2019-02-26T04:24:40.917Z,89.28
2019-02-26T04:25:40.898Z,89.28
2019-02-26T04:26:40.933Z,88.54
2019-02-26T04:27:41.302Z,88.54
2019-02-26T04:28:43.013Z,89.07
2019-02-26T04:29:43.532Z,88.79
2019-02-26T04:30:41.711Z,88.59
2019-02-26T04:31:41.587Z,88.79
2019-02-26T04:32:41.550Z,89.73
2019-02-26T04:33:41.386Z,89.28
2019-02-26T04:34:40.800Z,90.36
2019-02-26T04:35:42.330Z,90.05
2019-02-26T04:36:42.786Z,90.47
2019-02-26T04:37:40.764Z,89.70
2019-02-26T04:38:40.754Z,89.17
2019-02-26T04:39:42.918Z,89.63
2019-02-26T04:40:41.031Z,89.73
2019-02-26T04:41:40.732Z,89.22
2019-02-26T04:42:42.930Z,89.22
2019-02-26T04:43:40.699Z,90.58
2019-02-26T04:44:40.691Z,89.73
2019-02-26T04:45:40.714Z,89.22
2019-02-26T04:46:40.664Z,90.16
2019-02-26T04:47:40.995Z,90.43
2019-02-26T04:48:40.643Z,90.22
2019-02-26T04:49:42.755Z,90.16
2019-02-26T04:50:41.471Z,90.05
2019-02-26T04:51:42.673Z,90.22
2019-02-26T04:52:43.374Z,89.90
2019-02-26T04:53:40.600Z,90.22
2019-02-26T04:54:40.577Z,90.47
2019-02-26T04:55:41.548Z,89.95
2019-02-26T04:56:42.825Z,89.95
2019-02-26T04:57:43.288Z,89.80
2019-02-26T04:58:42.467Z,90.33
2019-02-26T04:59:43.196Z,90.36
2019-02-26T05:00:40.532Z,90.01
2019-02-26T05:01:40.499Z,90.36
2019-02-26T05:02:40.487Z,90.16
2019-02-26T05:03:40.480Z,89.32
2019-02-26T05:04:42.196Z,89.22
2019-02-26T05:05:40.456Z,89.42
2019-02-26T05:06:40.456Z,89.67
2019-02-26T05:07:42.307Z,89.95
2019-02-26T05:08:42.778Z,90.26
2019-02-26T05:09:40.431Z,89.88
2019-02-26T05:10:40.398Z,90.41
2019-02-26T05:11:40.865Z,90.20
2019-02-26T05:12:40.412Z,89.61
2019-02-26T05:13:40.366Z,89.47
2019-02-26T05:14:40.357Z,89.61
2019-02-26T05:15:40.644Z,90.45
2019-02-26T05:16:40.520Z,89.44
2019-02-26T05:17:40.335Z,90.49
2019-02-26T05:18:40.345Z,90.59
2019-02-26T05:19:45.356Z,89.97
2019-02-26T05:20:43.022Z,90.28
2019-02-26T05:21:41.285Z,90.28
2019-02-26T05:22:40.268Z,90.84
2019-02-26T05:23:40.262Z,91.16
2019-02-26T05:24:43.754Z,91.79
2019-02-26T05:25:42.338Z,91.79
2019-02-26T05:26:40.235Z,92.57
2019-02-26T05:27:42.883Z,92.67
2019-02-26T05:28:43.626Z,92.21
2019-02-26T05:29:41.018Z,92.25
2019-02-26T05:30:41.231Z,92.67
2019-02-26T05:31:42.932Z,93.51
2019-02-26T05:32:40.165Z,93.40
2019-02-26T05:33:40.145Z,93.40
2019-02-26T05:34:42.692Z,92.67
2019-02-26T05:35:40.919Z,92.77
2019-02-26T05:36:42.897Z,93.09
2019-02-26T05:37:41.149Z,92.99
2019-02-26T05:38:40.095Z,93.30
2019-02-26T05:39:42.593Z,93.40
2019-02-26T05:40:42.637Z,92.99
2019-02-26T05:41:40.700Z,93.44
2019-02-26T05:42:40.047Z,93.51
2019-02-26T05:43:40.041Z,93.40
2019-02-26T05:44:40.025Z,93.19
2019-02-26T05:45:40.031Z,93.62
2019-02-26T05:46:40.006Z,93.82
2019-02-26T05:47:40.000Z,93.93
2019-02-26T05:48:42.920Z,93.40
2019-02-26T05:49:43.281Z,93.62
2019-02-26T05:50:43.833Z,93.93
2019-02-26T05:51:39.950Z,94.04
2019-02-26T05:52:39.939Z,93.57
2019-02-26T05:53:39.961Z,94.04
2019-02-26T05:54:39.917Z,93.68
2019-02-26T05:55:42.274Z,93.68
2019-02-26T05:56:41.270Z,93.84
2019-02-26T05:57:39.903Z,93.84
2019-02-26T05:58:41.912Z,94.06
2019-02-26T05:59:41.917Z,94.06
2019-02-26T06:00:39.852Z,93.74
2019-02-26T06:01:39.840Z,93.53
2019-02-26T06:02:42.118Z,93.63
2019-02-26T06:03:41.062Z,93.80
2019-02-26T06:04:41.034Z,93.49
2019-02-26T06:05:43.466Z,93.49
2019-02-26T06:06:40.784Z,92.13
2019-02-26T06:07:39.789Z,92.23
2019-02-26T06:08:41.269Z,91.77
2019-02-26T06:09:39.760Z,91.87
2019-02-26T06:10:39.746Z,92.40
2019-02-26T06:11:41.740Z,92.08
2019-02-26T06:12:43.330Z,92.08
2019-02-26T06:13:41.146Z,92.25
2019-02-26T06:14:39.699Z,92.35
2019-02-26T06:15:39.687Z,91.66
2019-02-26T06:16:39.676Z,91.41
2019-02-26T06:17:43.087Z,91.52
2019-02-26T06:18:41.930Z,91.41
2019-02-26T06:19:42.111Z,91.62
2019-02-26T06:20:39.640Z,90.78
2019-02-26T06:21:42.156Z,90.84
2019-02-26T06:22:39.633Z,91.16
2019-02-26T06:23:39.622Z,91.37
2019-02-26T06:24:39.588Z,90.95
2019-02-26T06:25:39.578Z,90.36
2019-02-26T06:26:41.193Z,90.33
2019-02-26T06:27:39.559Z,90.11
2019-02-26T06:28:40.980Z,90.22
2019-02-26T06:29:39.543Z,90.01
2019-02-26T06:30:39.522Z,90.11
2019-02-26T06:31:42.264Z,90.33
2019-02-26T06:32:41.855Z,89.80
2019-02-26T06:33:40.934Z,90.11
2019-02-26T06:34:39.478Z,90.33
2019-02-26T06:35:40.695Z,89.80
2019-02-26T06:36:39.468Z,90.43
2019-02-26T06:37:40.268Z,89.90
2019-02-26T06:38:39.433Z,90.11
2019-02-26T06:39:39.421Z,90.33
2019-02-26T06:40:41.768Z,89.80
2019-02-26T06:41:41.558Z,90.11
2019-02-26T06:42:40.372Z,90.11
2019-02-26T06:43:39.970Z,90.43
2019-02-26T06:44:41.302Z,90.26
2019-02-26T06:45:41.094Z,90.36
2019-02-26T06:46:39.349Z,90.47
2019-02-26T06:47:39.355Z,90.36
2019-02-26T06:48:39.324Z,90.33
2019-02-26T06:49:40.933Z,90.47
2019-02-26T06:50:41.054Z,89.84
2019-02-26T06:51:39.297Z,89.95
2019-02-26T06:52:40.362Z,90.64
2019-02-26T06:53:39.275Z,90.99
2019-02-26T06:54:39.257Z,91.20
2019-02-26T06:55:39.255Z,91.58
2019-02-26T06:56:43.305Z,91.16
2019-02-26T06:57:41.386Z,90.84
2019-02-26T06:58:41.163Z,90.84
2019-02-26T06:59:39.207Z,91.33
2019-02-26T07:00:39.191Z,90.81
2019-02-26T07:01:39.650Z,91.22
2019-02-26T07:02:39.167Z,90.97
2019-02-26T07:03:40.887Z,91.43
2019-02-26T07:04:39.145Z,90.87
2019-02-26T07:05:39.140Z,90.66
2019-02-26T07:06:39.123Z,90.14
2019-02-26T07:07:39.113Z,90.34
2019-02-26T07:08:39.102Z,89.72
2019-02-26T07:09:41.025Z,90.20
2019-02-26T07:10:39.078Z,89.47
2019-02-26T07:11:39.074Z,89.11
2019-02-26T07:12:41.341Z,89.32
2019-02-26T07:13:41.055Z,89.05
2019-02-26T07:14:39.038Z,88.70
2019-02-26T07:15:39.062Z,88.39
2019-02-26T07:16:40.351Z,88.03
2019-02-26T07:17:40.674Z,87.26
2019-02-26T07:18:38.989Z,86.84
2019-02-26T07:19:38.980Z,86.74
2019-02-26T07:20:39.987Z,87.05
2019-02-26T07:21:40.638Z,86.74
2019-02-26T07:22:39.856Z,86.63
2019-02-26T07:23:40.040Z,86.63
2019-02-26T07:24:41.206Z,86.32
2019-02-26T07:25:41.324Z,86.21
2019-02-26T07:26:41.189Z,86.38
2019-02-26T07:27:38.898Z,86.38
2019-02-26T07:28:39.690Z,86.21
2019-02-26T07:29:40.081Z,86.53
2019-02-26T07:30:39.903Z,86.21
2019-02-26T07:31:38.849Z,86.28
2019-02-26T07:32:40.625Z,86.49
2019-02-26T07:33:39.595Z,86.38
2019-02-26T07:34:40.429Z,86.38
2019-02-26T07:35:39.724Z,86.38
2019-02-26T07:36:38.791Z,86.28
2019-02-26T07:37:40.368Z,86.49
2019-02-26T07:38:41.608Z,86.24
2019-02-26T07:39:40.210Z,85.82
2019-02-26T07:40:40.476Z,85.97
2019-02-26T07:41:38.744Z,85.61
2019-02-26T07:42:39.590Z,85.10
2019-02-26T07:43:41.158Z,85.47
2019-02-26T07:44:38.732Z,84.95
2019-02-26T07:45:38.692Z,85.16
2019-02-26T07:46:40.236Z,84.70
2019-02-26T07:47:38.683Z,84.50
2019-02-26T07:48:38.660Z,84.28
2019-02-26T07:49:38.656Z,84.08
2019-02-26T07:50:41.563Z,84.08
2019-02-26T07:51:40.420Z,83.83
2019-02-26T07:52:38.614Z,84.04
2019-02-26T07:53:42.049Z,84.35
2019-02-26T07:54:41.911Z,84.35
2019-02-26T07:55:41.943Z,84.31
2019-02-26T07:56:38.570Z,83.31
2019-02-26T07:57:40.541Z,83.48
2019-02-26T07:58:40.707Z,83.58
2019-02-26T07:59:39.874Z,83.42
2019-02-26T08:00:40.360Z,82.75
2019-02-26T08:01:39.892Z,82.86
2019-02-26T08:02:38.542Z,82.65
2019-02-26T08:03:38.499Z,82.44
2019-02-26T08:04:39.483Z,82.44
2019-02-26T08:05:38.474Z,82.71
2019-02-26T08:06:38.584Z,81.92
2019-02-26T08:07:38.460Z,82.44
2019-02-26T08:08:40.252Z,83.13
2019-02-26T08:09:38.425Z,83.54
2019-02-26T08:10:40.160Z,83.13
2019-02-26T08:11:41.098Z,82.20
2019-02-26T08:12:40.314Z,81.32
2019-02-26T08:13:38.381Z,81.12
2019-02-26T08:14:40.193Z,80.80
2019-02-26T08:15:39.875Z,80.70
2019-02-26T08:16:38.379Z,80.56
2019-02-26T08:17:38.336Z,80.32
2019-02-26T08:18:38.331Z,80.21
2019-02-26T08:19:39.849Z,79.80
2019-02-26T08:20:40.235Z,79.86
2019-02-26T08:21:38.296Z,79.03
2019-02-26T08:22:38.298Z,78.72
2019-02-26T08:23:38.271Z,78.68
2019-02-26T08:24:38.268Z,78.68
2019-02-26T08:25:38.246Z,78.16
2019-02-26T08:26:40.382Z,78.99
2019-02-26T08:27:38.226Z,78.68
2019-02-26T08:28:38.994Z,78.13
2019-02-26T08:29:38.210Z,78.86
2019-02-26T08:30:40.240Z,78.61
2019-02-26T08:31:38.180Z,78.20
2019-02-26T08:32:39.212Z,77.44
2019-02-26T08:33:38.158Z,77.54
2019-02-26T08:34:39.791Z,76.98
2019-02-26T08:35:38.144Z,76.98
2019-02-26T08:36:38.133Z,76.15
2019-02-26T08:37:38.121Z,75.92
2019-02-26T08:38:38.118Z,75.50
2019-02-26T08:39:38.777Z,76.12
2019-02-26T08:40:38.082Z,75.81
2019-02-26T08:41:38.069Z,75.60
2019-02-26T08:42:38.063Z,75.26
2019-02-26T08:43:42.164Z,75.05
2019-02-26T08:44:39.032Z,74.02
2019-02-26T08:45:38.043Z,73.91
2019-02-26T08:46:39.784Z,73.71
2019-02-26T08:47:38.002Z,72.94
2019-02-26T08:48:39.446Z,73.25
2019-02-26T08:49:40.126Z,74.08
2019-02-26T08:50:39.063Z,73.36
2019-02-26T08:51:37.958Z,72.12
2019-02-26T08:52:37.945Z,71.98
2019-02-26T08:53:37.935Z,71.26
2019-02-26T08:54:37.965Z,70.92
2019-02-26T08:55:37.914Z,71.12
2019-02-26T08:56:38.731Z,70.29
2019-02-26T08:57:37.891Z,71.33
2019-02-26T08:58:37.876Z,71.30
2019-02-26T08:59:37.867Z,71.09
2019-02-26T09:00:37.898Z,69.74
2019-02-26T09:01:37.845Z,70.06
2019-02-26T09:02:37.834Z,70.12
2019-02-26T09:03:40.735Z,69.51
2019-02-26T09:04:38.508Z,69.82
2019-02-26T09:05:37.800Z,69.30
2019-02-26T09:06:37.810Z,69.71
2019-02-26T09:07:39.834Z,67.30
2019-02-26T09:08:38.630Z,67.72
2019-02-26T09:09:37.756Z,67.38
2019-02-26T09:10:38.710Z,66.76
2019-02-26T09:11:38.785Z,66.04
2019-02-26T09:12:39.024Z,67.03
2019-02-26T09:13:38.855Z,67.35
2019-02-26T09:14:40.258Z,68.17
2019-02-26T09:15:39.039Z,68.38
2019-02-26T09:16:37.676Z,67.66
2019-02-26T09:17:39.741Z,65.80
2019-02-26T09:18:40.387Z,66.80
2019-02-26T09:19:38.168Z,66.80
2019-02-26T09:20:37.632Z,65.46
2019-02-26T09:21:39.484Z,66.87
2019-02-26T09:22:37.623Z,66.70
2019-02-26T09:23:37.617Z,65.84
2019-02-26T09:24:37.594Z,65.33
2019-02-26T09:25:37.575Z,65.43
2019-02-26T09:26:37.564Z,65.74
2019-02-26T09:27:42.808Z,64.40
2019-02-26T09:28:38.555Z,65.12
2019-02-26T09:29:39.803Z,66.67
2019-02-26T09:30:38.969Z,66.87
2019-02-26T09:31:37.513Z,65.22
2019-02-26T09:32:39.767Z,65.50
2019-02-26T09:33:38.694Z,66.74
2019-02-26T09:34:39.844Z,65.16
2019-02-26T09:35:37.461Z,65.16
2019-02-26T09:36:37.451Z,65.26
2019-02-26T09:37:37.444Z,64.96
2019-02-26T09:38:39.218Z,65.16
2019-02-26T09:39:39.090Z,64.62
2019-02-26T09:40:37.407Z,64.00
2019-02-26T09:41:38.551Z,64.41
2019-02-26T09:42:37.385Z,64.41
2019-02-26T09:43:38.788Z,61.74
2019-02-26T09:44:37.377Z,63.07
2019-02-26T09:45:37.384Z,62.56
2019-02-26T09:46:39.354Z,62.66
2019-02-26T09:47:37.328Z,61.91
2019-02-26T09:48:38.260Z,62.43
2019-02-26T09:49:37.307Z,61.51
2019-02-26T09:50:38.643Z,60.14
2019-02-26T09:51:37.993Z,60.14
2019-02-26T09:52:37.272Z,61.17
2019-02-26T09:53:37.263Z,60.14
2019-02-26T09:54:40.241Z,60.96
2019-02-26T09:55:37.239Z,60.21
2019-02-26T09:56:37.700Z,60.01
2019-02-26T09:57:37.227Z,58.47
2019-02-26T09:58:38.182Z,58.26
2019-02-26T09:59:38.506Z,56.79
2019-02-26T10:00:37.692Z,57.93
2019-02-26T10:01:37.819Z,58.44
2019-02-26T10:02:37.193Z,57.00
2019-02-26T10:03:39.107Z,57.00
2019-02-26T10:04:37.137Z,57.82
2019-02-26T10:05:37.130Z,58.03
2019-02-26T10:06:37.996Z,58.75
2019-02-26T10:07:38.723Z,57.49
2019-02-26T10:08:37.105Z,56.77
2019-02-26T10:09:38.215Z,56.98
2019-02-26T10:10:39.691Z,56.67
2019-02-26T10:11:39.190Z,56.98
2019-02-26T10:12:39.264Z,59.34
2019-02-26T10:13:39.474Z,58.21
2019-02-26T10:14:38.522Z,56.64
2019-02-26T10:15:39.706Z,56.36
2019-02-26T10:16:37.007Z,55.72
2019-02-26T10:17:38.056Z,55.82
2019-02-26T10:18:36.994Z,56.54
2019-02-26T10:19:38.732Z,57.05
2019-02-26T10:20:36.960Z,56.74
2019-02-26T10:21:37.516Z,54.69
2019-02-26T10:22:38.494Z,54.90
2019-02-26T10:23:36.945Z,53.64
2019-02-26T10:24:38.017Z,55.82
2019-02-26T10:25:38.709Z,55.82
2019-02-26T10:26:39.324Z,55.18
2019-02-26T10:27:38.794Z,53.46
2019-02-26T10:28:39.483Z,51.48
2019-02-26T10:29:39.353Z,51.48
2019-02-26T10:30:41.028Z,49.85
2019-02-26T10:31:40.196Z,48.92
2019-02-26T10:32:36.824Z,49.74
2019-02-26T10:33:38.666Z,49.51
2019-02-26T10:34:36.801Z,50.34
2019-02-26T10:35:39.725Z,50.31
2019-02-26T10:36:40.744Z,49.49
2019-02-26T10:37:39.097Z,50.01
2019-02-26T10:38:38.473Z,48.36
2019-02-26T10:39:36.767Z,46.62
2019-02-26T10:40:50.142Z,48.49
2019-02-26T10:41:39.879Z,48.16
2019-02-26T10:42:39.736Z,51.03
2019-02-26T10:43:36.699Z,49.80
2019-02-26T10:44:36.688Z,49.59
2019-02-26T10:45:41.553Z,49.77
2019-02-26T10:46:41.410Z,50.18
2019-02-26T10:47:36.653Z,48.24
2019-02-26T10:48:36.644Z,46.70
2019-02-26T10:49:36.631Z,47.93
2019-02-26T10:50:37.324Z,46.60
2019-02-26T10:51:36.612Z,46.68
2019-02-26T10:52:36.608Z,43.51
2019-02-26T10:53:36.599Z,45.86
2019-02-26T10:54:40.204Z,46.37
2019-02-26T10:55:41.200Z,44.84
2019-02-26T10:56:40.081Z,45.12
2019-02-26T10:57:38.375Z,46.66
2019-02-26T10:58:36.531Z,48.40
2019-02-26T10:59:36.517Z,47.58
2019-02-26T11:00:37.892Z,46.66
2019-02-26T11:01:36.494Z,47.48
2019-02-26T11:02:36.485Z,45.51
2019-02-26T11:03:40.865Z,45.92
2019-02-26T11:04:41.061Z,44.90
2019-02-26T11:05:37.737Z,45.20
2019-02-26T11:06:39.033Z,46.92
2019-02-26T11:07:39.936Z,44.57
2019-02-26T11:08:36.448Z,43.85
2019-02-26T11:09:36.425Z,43.55
2019-02-26T11:10:41.343Z,43.24
2019-02-26T11:11:38.060Z,43.44
2019-02-26T11:12:36.370Z,44.78
2019-02-26T11:13:37.275Z,44.26
2019-02-26T11:14:38.958Z,44.65
2019-02-26T11:15:36.346Z,46.41
2019-02-26T11:16:38.914Z,44.78
2019-02-26T11:17:36.316Z,46.51
2019-02-26T11:18:37.248Z,46.62
2019-02-26T11:19:38.852Z,45.08
2019-02-26T11:20:37.283Z,44.67
2019-02-26T11:21:36.303Z,44.57
2019-02-26T11:22:36.257Z,45.17
2019-02-26T11:23:38.324Z,45.08
2019-02-26T11:24:36.339Z,44.85
2019-02-26T11:25:37.015Z,44.55
2019-02-26T11:26:38.338Z,46.08
2019-02-26T11:27:38.028Z,44.96
2019-02-26T11:28:40.021Z,43.73
2019-02-26T11:29:38.242Z,43.44
2019-02-26T11:30:36.180Z,44.67
2019-02-26T11:31:36.998Z,46.70
2019-02-26T11:32:37.941Z,46.59
2019-02-26T11:33:36.148Z,45.17
2019-02-26T11:34:38.201Z,46.78
2019-02-26T11:35:36.146Z,45.25
2019-02-26T11:36:38.362Z,45.86
2019-02-26T11:37:36.090Z,45.88
2019-02-26T11:38:39.079Z,45.17
2019-02-26T11:39:36.072Z,47.52
2019-02-26T11:40:36.056Z,44.76
2019-02-26T11:41:36.057Z,43.10
2019-02-26T11:42:36.033Z,43.10
2019-02-26T11:43:36.024Z,44.43
2019-02-26T11:44:36.010Z,43.94
2019-02-26T11:45:37.093Z,43.10
2019-02-26T11:46:36.028Z,40.95
2019-02-26T11:47:37.412Z,42.79
2019-02-26T11:48:35.966Z,40.95
2019-02-26T11:49:36.994Z,43.10
2019-02-26T11:50:35.944Z,41.47
2019-02-26T11:51:37.292Z,39.71
2019-02-26T11:52:36.420Z,40.53
2019-02-26T11:53:35.919Z,42.97
2019-02-26T11:54:37.318Z,42.35
2019-02-26T11:55:37.435Z,40.63
2019-02-26T11:56:39.683Z,40.94
2019-02-26T11:57:37.679Z,40.41
2019-02-26T11:58:35.863Z,41.14
2019-02-26T11:59:38.082Z,40.92
2019-02-26T12:00:37.331Z,38.46
2019-02-26T12:01:36.938Z,40.10
2019-02-26T12:02:37.087Z,39.67
2019-02-26T12:03:37.124Z,40.90
2019-02-26T12:04:35.794Z,39.87
2019-02-26T12:05:38.320Z,39.17
2019-02-26T12:06:35.769Z,40.69
2019-02-26T12:07:35.752Z,39.96
2019-02-26T12:08:37.304Z,39.65
2019-02-26T12:09:38.539Z,39.96
2019-02-26T12:10:37.957Z,39.57
2019-02-26T12:11:35.718Z,39.37
2019-02-26T12:12:36.842Z,41.71
2019-02-26T12:13:35.684Z,42.73
2019-02-26T12:14:37.988Z,42.83
2019-02-26T12:15:38.424Z,40.69
2019-02-26T12:16:35.666Z,42.22
2019-02-26T12:17:35.637Z,41.39
2019-02-26T12:18:36.827Z,40.98
2019-02-26T12:19:37.148Z,40.37
2019-02-26T12:20:37.968Z,41.08
2019-02-26T12:21:37.013Z,42.51
2019-02-26T12:22:35.585Z,43.53
2019-02-26T12:23:37.379Z,40.47
2019-02-26T12:24:36.160Z,40.67
2019-02-26T12:25:35.555Z,42.92
2019-02-26T12:26:35.550Z,41.61
2019-02-26T12:27:36.099Z,42.00
2019-02-26T12:28:37.610Z,42.94
2019-02-26T12:29:35.503Z,40.57
2019-02-26T12:30:37.461Z,40.78
2019-02-26T12:31:36.975Z,42.41
2019-02-26T12:32:35.470Z,40.78
2019-02-26T12:33:35.465Z,41.39
2019-02-26T12:34:38.374Z,40.37
2019-02-26T12:35:35.802Z,38.62
2019-02-26T12:36:35.576Z,38.82
2019-02-26T12:37:35.423Z,39.92
2019-02-26T12:38:36.796Z,40.12
2019-02-26T12:39:35.392Z,40.12
2019-02-26T12:40:37.868Z,40.53
2019-02-26T12:41:38.678Z,40.33
2019-02-26T12:42:35.844Z,37.68
2019-02-26T12:43:36.743Z,37.38
2019-02-26T12:44:37.982Z,40.33
2019-02-26T12:45:38.697Z,42.16
2019-02-26T12:46:35.332Z,39.31
2019-02-26T12:47:35.300Z,40.96
2019-02-26T12:48:37.814Z,37.19
2019-02-26T12:49:38.389Z,34.84
2019-02-26T12:50:37.443Z,33.83
2019-02-26T12:51:35.571Z,34.93
2019-02-26T12:52:35.246Z,33.20